createdAt,value
2019-02-04T17:58:14.530Z,9.75
2019-02-04T17:58:38.210Z,9.85
2019-02-04T17:59:01.196Z,10.20
2019-02-04T17:59:23.990Z,10.48
2019-02-04T17:59:46.809Z,10.15
2019-02-04T18:00:11.706Z,9.88
2019-02-04T18:00:51.648Z,9.53
2019-02-04T18:01:15.669Z,9.75
2019-02-04T18:01:38.512Z,9.20
2019-02-04T18:02:01.471Z,9.45
2019-02-04T18:02:24.632Z,9.93
2019-02-04T18:02:47.582Z,10.90
2019-02-04T18:03:10.522Z,11.40
2019-02-04T18:03:33.657Z,12.68
2019-02-04T18:03:56.624Z,13.08
2019-02-04T18:04:19.498Z,12.45
2019-02-04T18:04:42.605Z,11.97
2019-02-04T18:05:05.543Z,12.35
2019-02-04T18:05:28.477Z,12.10
2019-02-04T18:05:51.297Z,11.57
2019-02-04T18:06:14.104Z,12.35
2019-02-04T18:06:36.999Z,13.53
2019-02-04T18:06:59.884Z,16.02
2019-02-04T18:07:22.770Z,16.37
2019-02-04T18:07:45.697Z,15.32
2019-02-04T18:08:08.709Z,18.42
2019-02-04T18:08:31.570Z,27.02
2019-02-04T18:08:55.409Z,78.42
2019-02-04T18:09:18.470Z,117.03
2019-02-04T18:09:41.890Z,77.45
2019-02-04T18:10:04.750Z,71.10
2019-02-04T18:10:27.651Z,52.20
2019-02-04T18:10:50.510Z,52.83
2019-02-04T18:11:13.471Z,51.53
2019-02-04T18:11:36.390Z,34.45
2019-02-04T18:11:59.250Z,25.95
2019-02-04T18:12:22.189Z,25.85
2019-02-04T18:12:45.010Z,23.22
2019-02-04T18:13:07.950Z,20.00
2019-02-04T18:13:31.050Z,19.73
2019-02-04T18:13:53.989Z,19.67
2019-02-04T18:14:17.391Z,23.75
2019-02-04T18:14:42.095Z,41.05
2019-02-04T18:15:04.770Z,43.78
2019-02-04T18:15:27.511Z,39.48
2019-02-04T18:15:50.550Z,45.33
2019-02-04T18:16:13.469Z,38.30
2019-02-04T18:16:36.292Z,42.88
2019-02-04T18:16:59.191Z,45.92
2019-02-04T18:17:22.390Z,64.40
2019-02-04T18:17:45.374Z,75.40
2019-02-04T18:18:10.129Z,98.27
2019-02-04T18:18:32.701Z,175.50
2019-02-04T18:18:56.128Z,239.85
2019-02-04T18:19:20.969Z,274.80
2019-02-04T18:19:43.650Z,190.22
2019-02-04T18:20:06.590Z,159.43
2019-02-04T18:20:29.568Z,105.22
2019-02-04T18:20:52.553Z,110.35
2019-02-04T18:21:16.067Z,113.68
2019-02-04T18:21:39.368Z,99.90
2019-02-04T18:22:02.331Z,83.33
2019-02-04T18:22:25.233Z,76.20
2019-02-04T18:22:48.190Z,76.57
2019-02-04T18:23:12.589Z,86.65
2019-02-04T18:23:45.669Z,81.90
2019-02-04T18:24:00.429Z,80.40
2019-02-04T18:25:09.231Z,71.77
2019-02-04T18:25:32.212Z,66.00
2019-02-04T18:25:55.169Z,68.15
2019-02-04T18:26:18.070Z,64.35
2019-02-04T18:26:41.137Z,53.68
2019-02-04T18:27:05.509Z,47.00
2019-02-04T18:27:28.415Z,44.00
2019-02-04T18:27:55.989Z,38.10
2019-02-04T18:28:21.189Z,40.98
2019-02-04T18:28:44.209Z,36.30
2019-02-04T18:29:08.124Z,28.50
2019-02-04T18:29:37.367Z,23.20
2019-02-04T18:30:03.929Z,19.62
2019-02-04T18:30:28.789Z,20.65
2019-02-04T18:31:03.193Z,22.15
2019-02-04T18:31:29.029Z,17.40
2019-02-04T18:31:54.849Z,16.30
2019-02-04T18:32:22.465Z,15.38
2019-02-04T18:32:45.689Z,16.42
2019-02-04T18:33:17.229Z,14.07
2019-02-04T18:33:43.888Z,14.18
2019-02-04T18:34:17.989Z,13.35
2019-02-04T18:34:47.029Z,13.45
2019-02-04T18:35:19.168Z,14.15
2019-02-04T18:35:44.767Z,14.50
2019-02-04T18:36:09.168Z,14.45
2019-02-04T18:36:47.139Z,15.58
2019-02-04T18:37:11.529Z,15.63
2019-02-04T18:37:34.429Z,16.48
2019-02-04T18:37:59.408Z,15.48
2019-02-04T18:38:25.412Z,15.35
2019-02-04T18:38:49.889Z,15.70
2019-02-04T18:40:02.247Z,14.60
2019-02-04T18:40:26.509Z,13.60
2019-02-04T18:40:49.928Z,13.60
2019-02-04T18:41:13.429Z,14.10
2019-02-04T18:41:37.728Z,13.75
2019-02-04T18:42:00.569Z,14.38
2019-02-04T18:42:24.068Z,13.90
2019-02-04T18:42:48.108Z,13.72
2019-02-04T18:43:10.928Z,14.78
2019-02-04T18:43:34.368Z,13.95
2019-02-04T18:43:57.628Z,14.53
2019-02-04T18:44:21.210Z,14.60
2019-02-04T18:44:45.028Z,15.23
2019-02-04T18:45:08.007Z,14.85
2019-02-04T18:45:32.456Z,13.22
2019-02-04T18:45:55.452Z,12.88
2019-02-04T18:46:18.992Z,13.48
2019-02-04T18:46:43.050Z,13.35
2019-02-04T18:47:06.048Z,13.28
2019-02-04T18:47:29.449Z,13.48
2019-02-04T18:47:52.454Z,13.43
2019-02-04T18:48:16.389Z,13.28
2019-02-04T18:48:39.496Z,13.48
2019-02-04T18:49:02.331Z,14.10
2019-02-04T18:49:25.234Z,13.48
2019-02-04T18:49:48.129Z,14.00
2019-02-04T18:50:11.048Z,13.43
2019-02-04T18:50:34.248Z,14.20
2019-02-04T18:50:57.194Z,13.55
2019-02-04T18:52:03.321Z,13.88
2019-02-04T18:52:33.980Z,12.68
2019-02-04T18:52:58.332Z,13.85
2019-02-04T18:53:21.269Z,13.30
2019-02-04T18:53:57.917Z,14.95
2019-02-04T18:54:18.769Z,15.20
2019-02-04T18:54:41.769Z,15.78
2019-02-04T18:55:04.669Z,15.65
2019-02-04T18:55:28.008Z,14.58
2019-02-04T18:55:50.869Z,15.00
2019-02-04T18:56:14.248Z,15.05
2019-02-04T18:56:37.189Z,13.50
2019-02-04T18:57:00.292Z,14.07
2019-02-04T18:57:23.429Z,13.28
2019-02-04T18:57:46.310Z,13.25
2019-02-04T18:58:09.669Z,14.10
2019-02-04T18:58:33.133Z,13.78
2019-02-04T18:58:56.688Z,15.25
2019-02-04T18:59:19.669Z,14.47
2019-02-04T18:59:42.569Z,16.27
2019-02-04T19:00:07.309Z,17.10
2019-02-04T19:00:29.893Z,15.72
2019-02-04T19:00:52.994Z,16.65
2019-02-04T19:01:15.989Z,15.28
2019-02-04T19:01:40.549Z,15.68
2019-02-04T19:02:05.027Z,15.03
2019-02-04T19:02:27.828Z,15.23
2019-02-04T19:02:52.108Z,15.30
2019-02-04T19:03:17.538Z,15.43
2019-02-04T19:03:40.809Z,16.07
2019-02-04T19:04:03.848Z,15.93
2019-02-04T19:04:27.250Z,15.58
2019-02-04T19:04:50.437Z,15.78
2019-02-04T19:05:13.689Z,15.60
2019-02-04T19:05:37.333Z,15.48
2019-02-04T19:06:00.489Z,16.10
2019-02-04T19:06:23.330Z,16.00
2019-02-04T19:06:48.064Z,14.87
2019-02-04T19:07:11.687Z,14.35
2019-02-04T19:07:34.649Z,15.03
2019-02-04T19:07:57.653Z,15.05
2019-02-04T19:08:20.628Z,15.35
2019-02-04T19:08:43.568Z,14.83
2019-02-04T19:09:06.732Z,14.83
2019-02-04T19:09:29.668Z,14.78
2019-02-04T19:09:52.528Z,14.95
2019-02-04T19:10:15.456Z,15.03
2019-02-04T19:10:38.389Z,13.78
2019-02-04T19:11:01.228Z,14.07
2019-02-04T19:11:24.129Z,14.63
2019-02-04T19:11:46.935Z,14.15
2019-02-04T19:12:10.349Z,14.55
2019-02-04T19:12:33.129Z,15.13
2019-02-04T19:12:55.957Z,15.38
2019-02-04T19:13:19.247Z,14.85
2019-02-04T19:13:42.228Z,15.90
2019-02-04T19:14:05.214Z,15.50
2019-02-04T19:14:28.328Z,16.20
2019-02-04T19:14:51.288Z,17.95
2019-02-04T19:15:14.328Z,16.52
2019-02-04T19:15:37.489Z,15.72
2019-02-04T19:16:00.349Z,14.90
2019-02-04T19:16:23.161Z,16.15
2019-02-04T19:16:46.009Z,15.15
2019-02-04T19:17:08.949Z,14.85
2019-02-04T19:17:31.969Z,14.20
2019-02-04T19:17:54.728Z,16.25
2019-02-04T19:18:18.705Z,17.00
2019-02-04T19:18:42.048Z,16.32
2019-02-04T19:19:04.849Z,16.17
2019-02-04T19:19:27.871Z,15.63
2019-02-04T19:19:51.028Z,17.73
2019-02-04T19:20:13.868Z,15.75
2019-02-04T19:20:37.351Z,16.20
2019-02-04T19:21:00.288Z,16.55
2019-02-04T19:21:23.709Z,16.60
2019-02-04T19:21:46.550Z,16.10
2019-02-04T19:22:09.428Z,15.90
2019-02-04T19:22:32.453Z,16.73
2019-02-04T19:22:55.259Z,15.78
2019-02-04T19:23:18.250Z,15.23
2019-02-04T19:23:41.229Z,16.97
2019-02-04T19:24:09.637Z,15.40
2019-02-04T19:24:28.608Z,15.93
2019-02-04T19:24:54.047Z,16.95
2019-02-04T19:25:16.929Z,15.50
2019-02-04T19:25:39.968Z,17.17
2019-02-04T19:26:02.769Z,16.10
2019-02-04T19:26:25.649Z,15.60
2019-02-04T19:26:48.451Z,16.07
2019-02-04T19:27:11.410Z,15.25
2019-02-04T19:27:34.190Z,15.98
2019-02-04T19:27:57.067Z,16.32
2019-02-04T19:28:19.929Z,15.83
2019-02-04T19:28:42.829Z,16.30
2019-02-04T19:29:05.992Z,16.10
2019-02-04T19:29:28.830Z,16.02
2019-02-04T19:29:51.816Z,15.68
2019-02-04T19:30:14.728Z,16.32
2019-02-04T19:30:37.529Z,16.07
2019-02-04T19:31:00.352Z,15.72
2019-02-04T19:31:23.168Z,16.42
2019-02-04T19:31:46.563Z,16.57
2019-02-04T19:32:09.511Z,15.55
2019-02-04T19:32:32.451Z,15.05
2019-02-04T19:32:55.372Z,15.43
2019-02-04T19:33:18.491Z,16.97
2019-02-04T19:33:41.510Z,16.55
2019-02-04T19:34:04.320Z,16.50
2019-02-04T19:34:27.198Z,15.15
2019-02-04T19:34:50.892Z,15.88
2019-02-04T19:35:14.352Z,15.25
2019-02-04T19:35:37.108Z,16.27
2019-02-04T19:35:59.993Z,17.23
2019-02-04T19:36:22.917Z,16.30
2019-02-04T19:36:45.890Z,15.83
2019-02-04T19:37:08.778Z,15.68
2019-02-04T19:37:32.218Z,15.18
2019-02-04T19:37:55.190Z,15.80
2019-02-04T19:38:18.071Z,14.95
2019-02-04T19:38:41.011Z,17.07
2019-02-04T19:39:04.811Z,16.52
2019-02-04T19:39:27.992Z,15.80
2019-02-04T19:39:51.690Z,16.30
2019-02-04T19:40:14.592Z,15.65
2019-02-04T19:40:37.392Z,15.80
2019-02-04T19:41:00.331Z,16.60
2019-02-04T19:41:23.228Z,14.78
2019-02-04T19:41:46.579Z,19.17
2019-02-04T19:42:09.711Z,19.37
2019-02-04T19:42:32.626Z,16.87
2019-02-04T19:42:55.509Z,18.40
2019-02-04T19:43:18.450Z,16.97
2019-02-04T19:43:41.370Z,17.00
2019-02-04T19:44:04.311Z,17.40
2019-02-04T19:44:27.331Z,16.12
2019-02-04T19:44:50.330Z,16.15
2019-02-04T19:45:13.134Z,15.18
2019-02-04T19:45:36.031Z,16.20
2019-02-04T19:45:59.673Z,15.93
2019-02-04T19:46:22.771Z,15.28
2019-02-04T19:46:45.810Z,15.65
2019-02-04T19:47:08.713Z,16.15
2019-02-04T19:47:31.631Z,16.12
2019-02-04T19:47:54.600Z,16.15
2019-02-04T19:48:17.651Z,15.43
2019-02-04T19:48:40.519Z,15.95
2019-02-04T19:49:03.834Z,16.37
2019-02-04T19:49:27.789Z,15.45
2019-02-04T19:49:51.054Z,16.90
2019-02-04T19:50:13.869Z,16.82
2019-02-04T19:50:36.744Z,16.55
2019-02-04T19:50:59.613Z,16.57
2019-02-04T19:51:22.522Z,16.25
2019-02-04T19:51:45.330Z,16.48
2019-02-04T19:52:08.331Z,16.93
2019-02-04T19:52:31.231Z,16.67
2019-02-04T19:52:55.809Z,15.98
2019-02-04T19:53:19.147Z,16.25
2019-02-04T19:53:42.169Z,15.43
2019-02-04T19:54:05.031Z,16.02
2019-02-04T19:54:27.948Z,15.93
2019-02-04T19:54:50.948Z,16.40
2019-02-04T19:55:13.792Z,15.70
2019-02-04T19:55:36.727Z,15.10
2019-02-04T19:55:59.682Z,16.35
2019-02-04T19:56:22.608Z,15.23
2019-02-04T19:56:45.488Z,15.30
2019-02-04T19:57:08.887Z,16.27
2019-02-04T19:57:31.729Z,16.07
2019-02-04T19:57:54.730Z,15.93
2019-02-04T19:58:17.668Z,16.30
2019-02-04T19:58:40.719Z,15.43
2019-02-04T19:59:03.549Z,16.50
2019-02-04T19:59:27.007Z,14.55
2019-02-04T19:59:50.489Z,14.78
2019-02-04T20:00:13.344Z,15.30
2019-02-04T20:00:36.392Z,16.17
2019-02-04T20:00:59.268Z,16.00
2019-02-04T20:01:22.201Z,15.23
2019-02-04T20:01:45.020Z,15.03
2019-02-04T20:02:07.911Z,14.63
2019-02-04T20:02:30.873Z,15.53
2019-02-04T20:02:53.703Z,15.05
2019-02-04T20:03:18.092Z,16.17
2019-02-04T20:03:41.074Z,14.55
2019-02-04T20:04:03.993Z,15.13
2019-02-04T20:04:26.952Z,15.55
2019-02-04T20:04:50.333Z,19.23
2019-02-04T20:05:13.432Z,20.02
2019-02-04T20:05:36.191Z,17.05
2019-02-04T20:05:59.333Z,17.70
2019-02-04T20:06:23.113Z,16.52
2019-02-04T20:06:46.172Z,16.12
2019-02-04T20:07:09.332Z,26.37
2019-02-04T20:07:32.429Z,30.90
2019-02-04T20:07:55.369Z,25.08
2019-02-04T20:08:19.729Z,22.00
2019-02-04T20:08:43.010Z,23.12
2019-02-04T20:09:06.411Z,21.77
2019-02-04T20:09:29.301Z,23.42
2019-02-04T20:09:53.309Z,21.40
2019-02-04T20:10:16.318Z,23.67
2019-02-04T20:10:39.255Z,24.52
2019-02-04T20:11:02.921Z,23.32
2019-02-04T20:11:25.871Z,23.32
2019-02-04T20:11:48.790Z,29.35
2019-02-04T20:12:12.191Z,35.88
2019-02-04T20:12:35.719Z,221.62
2019-02-04T20:12:58.629Z,28.38
2019-02-04T20:13:22.009Z,55.40
2019-02-04T20:13:45.093Z,56.37
2019-02-04T20:14:08.318Z,41.63
2019-02-04T20:14:31.930Z,46.00
2019-02-04T20:14:56.205Z,43.35
2019-02-04T20:15:20.611Z,42.78
2019-02-04T20:15:43.490Z,64.47
2019-02-04T20:16:06.321Z,72.97
2019-02-04T20:16:29.129Z,70.87
2019-02-04T20:16:51.974Z,74.65
2019-02-04T20:17:14.932Z,57.78
2019-02-04T20:17:37.929Z,40.83
2019-02-04T20:18:00.770Z,34.92
2019-02-04T20:18:23.697Z,29.67
2019-02-04T20:18:46.555Z,26.97
2019-02-04T20:19:09.458Z,24.75
2019-02-04T20:19:32.370Z,22.35
2019-02-04T20:19:55.378Z,21.02
2019-02-04T20:20:18.354Z,19.50
2019-02-04T20:20:42.566Z,19.57
2019-02-04T20:21:05.831Z,19.15
2019-02-04T20:21:28.652Z,18.70
2019-02-04T20:21:51.548Z,18.37
2019-02-04T20:22:14.403Z,18.92
2019-02-04T20:22:37.291Z,19.30
2019-02-04T20:23:00.131Z,17.02
2019-02-04T20:23:23.018Z,15.32
2019-02-04T20:23:45.830Z,15.50
2019-02-04T20:24:08.738Z,14.93
2019-02-04T20:24:33.216Z,15.43
2019-02-04T20:24:56.248Z,15.08
2019-02-04T20:25:19.179Z,14.78
2019-02-04T20:25:42.130Z,14.50
2019-02-04T20:26:05.071Z,14.35
2019-02-04T20:26:27.890Z,13.93
2019-02-04T20:26:50.749Z,14.18
2019-02-04T20:27:13.630Z,14.25
2019-02-04T20:27:36.732Z,14.35
2019-02-04T20:27:59.704Z,14.30
2019-02-04T20:28:22.539Z,14.10
2019-02-04T20:28:45.479Z,13.90
2019-02-04T20:29:09.111Z,14.33
2019-02-04T20:29:32.044Z,14.05
2019-02-04T20:29:54.842Z,13.15
2019-02-04T20:30:18.331Z,13.65
2019-02-04T20:30:45.686Z,14.65
2019-02-04T20:31:05.915Z,14.85
2019-02-04T20:31:28.893Z,12.88
2019-02-04T20:31:51.860Z,13.28
2019-02-04T20:32:14.737Z,13.85
2019-02-04T20:32:37.690Z,13.88
2019-02-04T20:33:00.591Z,13.32
2019-02-04T20:33:23.569Z,12.85
2019-02-04T20:33:46.671Z,14.15
2019-02-04T20:34:09.774Z,14.05
2019-02-04T20:34:32.754Z,13.72
2019-02-04T20:34:55.595Z,14.30
2019-02-04T20:35:18.650Z,14.00
2019-02-04T20:35:41.546Z,13.62
2019-02-04T20:36:04.511Z,14.30
2019-02-04T20:36:27.333Z,13.98
2019-02-04T20:36:50.220Z,13.83
2019-02-04T20:37:13.148Z,14.10
2019-02-04T20:37:35.936Z,14.07
2019-02-04T20:37:58.729Z,14.25
2019-02-04T20:38:21.592Z,14.40
2019-02-04T20:38:44.658Z,13.90
2019-02-04T20:39:07.470Z,13.70
2019-02-04T20:39:30.571Z,14.33
2019-02-04T20:39:53.421Z,14.80
2019-02-04T20:40:16.373Z,13.55
2019-02-04T20:40:39.311Z,13.32
2019-02-04T20:41:02.425Z,14.40
2019-02-04T20:41:25.378Z,14.58
2019-02-04T20:41:48.331Z,15.18
2019-02-04T20:42:11.231Z,14.40
2019-02-04T20:42:34.173Z,13.50
2019-02-04T20:42:57.427Z,14.65
2019-02-04T20:43:20.431Z,15.28
2019-02-04T20:43:43.209Z,15.35
2019-02-04T20:44:06.051Z,13.18
2019-02-04T20:44:29.232Z,12.90
2019-02-04T20:44:52.250Z,14.28
2019-02-04T20:45:15.149Z,13.55
2019-02-04T20:45:38.090Z,16.02
2019-02-04T20:46:01.031Z,15.88
2019-02-04T20:46:23.812Z,15.45
2019-02-04T20:46:46.873Z,14.07
2019-02-04T20:47:09.853Z,14.10
2019-02-04T20:47:32.726Z,14.45
2019-02-04T20:47:57.301Z,15.20
2019-02-04T20:48:20.290Z,14.65
2019-02-04T20:48:43.271Z,14.25
2019-02-04T20:49:06.131Z,14.43
2019-02-04T20:49:28.951Z,14.73
2019-02-04T20:49:51.890Z,15.32
2019-02-04T20:50:14.709Z,14.50
2019-02-04T20:50:37.611Z,14.83
2019-02-04T20:51:00.530Z,14.65
2019-02-04T20:51:23.450Z,13.58
2019-02-04T20:51:46.331Z,14.13
2019-02-04T20:52:09.211Z,15.25
2019-02-04T20:52:32.170Z,15.45
2019-02-04T20:52:55.050Z,14.33
2019-02-04T20:53:17.979Z,15.30
2019-02-04T20:53:41.342Z,14.47
2019-02-04T20:54:04.120Z,14.83
2019-02-04T20:54:27.071Z,13.48
2019-02-04T20:54:50.052Z,13.38
2019-02-04T20:55:13.519Z,14.73
2019-02-04T20:55:36.471Z,14.45
2019-02-04T20:55:59.338Z,13.50
2019-02-04T20:56:22.238Z,13.53
2019-02-04T20:56:45.090Z,14.00
2019-02-04T20:57:08.709Z,13.38
2019-02-04T20:57:31.591Z,13.13
2019-02-04T20:57:54.998Z,13.53
2019-02-04T20:58:17.977Z,13.98
2019-02-04T20:58:41.009Z,13.48
2019-02-04T20:59:03.822Z,13.18
2019-02-04T20:59:27.351Z,13.68
2019-02-04T20:59:50.312Z,13.35
2019-02-04T21:00:13.289Z,13.95
2019-02-04T21:00:36.319Z,13.45
2019-02-04T21:00:59.240Z,14.05
2019-02-04T21:01:22.351Z,14.18
2019-02-04T21:01:45.278Z,13.85
2019-02-04T21:02:08.691Z,13.58
2019-02-04T21:02:31.659Z,13.45
2019-02-04T21:02:55.439Z,13.10
2019-02-04T21:03:18.880Z,13.55
2019-02-04T21:03:41.740Z,15.38
2019-02-04T21:04:04.611Z,14.65
2019-02-04T21:04:27.498Z,14.13
2019-02-04T21:04:50.550Z,13.88
2019-02-04T21:05:13.348Z,13.28
2019-02-04T21:05:36.228Z,13.78
2019-02-04T21:05:59.049Z,12.18
2019-02-04T21:06:21.909Z,12.98
2019-02-04T21:06:55.476Z,14.33
2019-02-04T21:07:09.169Z,14.28
2019-02-04T21:07:31.945Z,14.53
2019-02-04T21:07:54.738Z,14.63
2019-02-04T21:08:17.729Z,13.43
2019-02-04T21:08:40.469Z,13.40
2019-02-04T21:09:03.348Z,13.58
2019-02-04T21:09:26.548Z,14.40
2019-02-04T21:09:49.549Z,14.07
2019-02-04T21:10:12.643Z,13.28
2019-02-04T21:10:36.129Z,12.93
2019-02-04T21:10:59.509Z,13.45
2019-02-04T21:11:22.531Z,13.85
2019-02-04T21:11:45.429Z,14.35
2019-02-04T21:12:08.769Z,13.72
2019-02-04T21:12:31.809Z,13.25
2019-02-04T21:12:54.748Z,13.38
2019-02-04T21:13:17.669Z,14.95
2019-02-04T21:13:40.689Z,13.83
2019-02-04T21:14:03.530Z,13.93
2019-02-04T21:14:26.448Z,13.48
2019-02-04T21:14:49.410Z,14.45
2019-02-04T21:15:12.328Z,13.83
2019-02-04T21:15:35.249Z,12.73
2019-02-04T21:15:58.229Z,13.98
2019-02-04T21:16:21.249Z,13.55
2019-02-04T21:16:45.208Z,13.58
2019-02-04T21:17:08.230Z,12.43
2019-02-04T21:17:31.249Z,13.45
2019-02-04T21:17:54.108Z,12.70
2019-02-04T21:18:17.229Z,12.33
2019-02-04T21:18:40.187Z,13.25
2019-02-04T21:19:03.009Z,12.90
2019-02-04T21:19:25.887Z,13.40
2019-02-04T21:19:48.888Z,12.73
2019-02-04T21:20:11.748Z,13.50
2019-02-04T21:20:34.688Z,13.40
2019-02-04T21:20:57.489Z,12.45
2019-02-04T21:21:20.410Z,14.30
2019-02-04T21:21:43.407Z,13.62
2019-02-04T21:22:06.308Z,13.83
2019-02-04T21:22:29.309Z,13.98
2019-02-04T21:22:52.289Z,14.23
2019-02-04T21:23:15.209Z,14.20
2019-02-04T21:23:38.148Z,13.98
2019-02-04T21:24:01.009Z,13.43
2019-02-04T21:24:23.870Z,12.93
2019-02-04T21:24:56.255Z,14.25
2019-02-04T21:25:11.809Z,14.90
2019-02-04T21:25:34.790Z,13.75
2019-02-04T21:25:57.812Z,12.82
2019-02-04T21:26:20.789Z,13.58
2019-02-04T21:26:43.649Z,13.90
2019-02-04T21:27:06.589Z,13.48
2019-02-04T21:27:32.527Z,13.68
2019-02-04T21:27:55.446Z,14.33
2019-02-04T21:28:18.408Z,14.78
2019-02-04T21:28:41.248Z,13.30
2019-02-04T21:29:04.130Z,13.55
2019-02-04T21:29:27.111Z,13.83
2019-02-04T21:29:49.969Z,14.07
2019-02-04T21:30:12.969Z,14.15
2019-02-04T21:30:35.767Z,14.90
2019-02-04T21:30:58.791Z,13.45
2019-02-04T21:31:21.671Z,13.95
2019-02-04T21:31:44.589Z,14.00
2019-02-04T21:32:07.489Z,13.80
2019-02-04T21:32:30.269Z,13.15
2019-02-04T21:32:53.171Z,14.65
2019-02-04T21:33:16.047Z,15.00
2019-02-04T21:33:38.831Z,15.08
2019-02-04T21:34:03.160Z,13.93
2019-02-04T21:34:26.471Z,13.58
2019-02-04T21:34:49.589Z,13.30
2019-02-04T21:35:12.548Z,13.28
2019-02-04T21:35:35.509Z,13.88
2019-02-04T21:35:58.409Z,15.38
2019-02-04T21:36:22.209Z,14.03
2019-02-04T21:36:45.188Z,14.40
2019-02-04T21:37:08.609Z,15.25
2019-02-04T21:37:31.609Z,15.75
2019-02-04T21:37:55.513Z,14.50
2019-02-04T21:38:18.469Z,15.93
2019-02-04T21:38:41.490Z,14.20
2019-02-04T21:39:06.072Z,16.55
2019-02-04T21:39:31.309Z,15.18
2019-02-04T21:39:54.328Z,15.20
2019-02-04T21:41:07.271Z,15.58
2019-02-04T21:42:19.649Z,14.38
2019-02-04T21:42:45.489Z,14.05
2019-02-04T21:43:11.029Z,14.78
2019-02-04T21:43:38.568Z,14.23
2019-02-04T21:44:04.697Z,14.00
2019-02-04T21:44:34.849Z,14.35
2019-02-04T21:44:57.091Z,13.43
2019-02-04T21:45:25.569Z,14.65
2019-02-04T21:45:51.690Z,14.53
2019-02-04T21:46:17.707Z,14.85
2019-02-04T21:47:42.692Z,13.95
2019-02-04T21:48:16.929Z,15.05
2019-02-04T21:48:43.029Z,13.58
2019-02-04T21:49:07.270Z,16.25
2019-02-04T21:49:34.588Z,15.53
2019-02-04T21:50:00.124Z,14.00
2019-02-04T21:50:22.852Z,14.25
2019-02-04T21:50:45.827Z,14.73
2019-02-04T21:51:09.429Z,14.47
2019-02-04T21:51:32.448Z,15.00
2019-02-04T21:51:56.109Z,14.83
2019-02-04T21:52:21.188Z,15.28
2019-02-04T21:52:46.929Z,14.13
2019-02-04T21:53:11.175Z,14.75
2019-02-04T21:53:34.789Z,14.75
2019-02-04T21:53:58.449Z,15.70
2019-02-04T21:54:22.648Z,16.10
2019-02-04T21:54:48.429Z,16.12
2019-02-04T21:55:17.369Z,15.72
2019-02-04T21:55:43.388Z,16.02
2019-02-04T21:56:06.389Z,16.45
2019-02-04T21:56:29.991Z,14.73
2019-02-04T21:56:54.530Z,15.25
2019-02-04T21:57:18.388Z,14.60
2019-02-04T21:57:41.247Z,16.10
2019-02-04T21:58:06.529Z,15.63
2019-02-04T21:58:29.449Z,15.60
2019-02-04T21:58:56.508Z,14.43
2019-02-04T21:59:16.929Z,14.60
2019-02-04T21:59:40.053Z,14.60
2019-02-04T22:00:05.015Z,15.72
2019-02-04T22:00:28.352Z,15.68
2019-02-04T22:00:51.210Z,15.90
2019-02-04T22:01:14.010Z,14.20
2019-02-04T22:01:39.627Z,14.78
2019-02-04T22:02:02.394Z,13.90
2019-02-04T22:02:27.310Z,14.42
2019-02-04T22:02:50.273Z,14.47
2019-02-04T22:03:13.307Z,15.68
2019-02-04T22:03:36.348Z,15.20
2019-02-04T22:03:59.329Z,15.80
2019-02-04T22:04:22.529Z,15.43
2019-02-04T22:04:46.209Z,15.90
2019-02-04T22:05:10.008Z,15.23
2019-02-04T22:05:35.408Z,15.80
2019-02-04T22:05:58.769Z,15.50
2019-02-04T22:06:21.649Z,15.95
2019-02-04T22:06:44.988Z,15.85
2019-02-04T22:07:09.777Z,15.43
2019-02-04T22:07:32.609Z,16.75
2019-02-04T22:07:55.492Z,16.45
2019-02-04T22:08:18.447Z,16.48
2019-02-04T22:08:42.106Z,15.55
2019-02-04T22:09:05.026Z,16.12
2019-02-04T22:09:27.931Z,16.07
2019-02-04T22:09:50.995Z,16.45
2019-02-04T22:10:14.368Z,16.17
2019-02-04T22:10:37.347Z,16.75
2019-02-04T22:11:00.228Z,17.02
2019-02-04T22:11:23.186Z,16.67
2019-02-04T22:11:46.193Z,16.42
2019-02-04T22:12:09.927Z,16.60
2019-02-04T22:12:32.927Z,16.45
2019-02-04T22:12:55.870Z,15.08
2019-02-04T22:13:18.812Z,15.13
2019-02-04T22:13:42.549Z,14.40
2019-02-04T22:14:05.610Z,15.13
2019-02-04T22:14:28.546Z,15.65
2019-02-04T22:14:51.391Z,16.23
2019-02-04T22:15:15.327Z,16.45
2019-02-04T22:15:38.228Z,15.50
2019-02-04T22:16:01.086Z,13.90
2019-02-04T22:16:24.028Z,15.25
2019-02-04T22:16:47.610Z,15.00
2019-02-04T22:17:10.670Z,14.50
2019-02-04T22:17:33.568Z,15.35
2019-02-04T22:17:56.541Z,15.83
2019-02-04T22:18:19.649Z,14.13
2019-02-04T22:18:43.328Z,14.73
2019-02-04T22:19:06.288Z,15.55
2019-02-04T22:19:29.327Z,14.95
2019-02-04T22:19:55.284Z,14.18
2019-02-04T22:20:18.749Z,13.60
2019-02-04T22:20:41.669Z,15.85
2019-02-04T22:21:04.991Z,15.08
2019-02-04T22:21:28.068Z,16.05
2019-02-04T22:21:51.549Z,15.48
2019-02-04T22:22:14.429Z,14.63
2019-02-04T22:22:37.526Z,14.80
2019-02-04T22:23:00.906Z,13.88
2019-02-04T22:23:23.889Z,15.03
2019-02-04T22:23:48.608Z,15.85
2019-02-04T22:24:13.192Z,14.45
2019-02-04T22:24:36.148Z,15.25
2019-02-04T22:25:00.687Z,16.23
2019-02-04T22:25:24.249Z,14.70
2019-02-04T22:25:47.530Z,14.63
2019-02-04T22:26:10.549Z,14.90
2019-02-04T22:26:33.449Z,15.63
2019-02-04T22:26:57.186Z,14.95
2019-02-04T22:27:20.156Z,14.55
2019-02-04T22:27:43.011Z,14.68
2019-02-04T22:28:06.008Z,13.90
2019-02-04T22:28:29.047Z,15.60
2019-02-04T22:28:52.807Z,14.50
2019-02-04T22:29:16.330Z,14.38
2019-02-04T22:29:39.167Z,15.28
2019-02-04T22:30:02.088Z,14.07
2019-02-04T22:30:25.567Z,13.55
2019-02-04T22:30:49.086Z,14.65
2019-02-04T22:31:15.069Z,14.18
2019-02-04T22:31:38.247Z,14.75
2019-02-04T22:32:02.179Z,14.87
2019-02-04T22:32:26.749Z,14.10
2019-02-04T22:32:50.049Z,15.10
2019-02-04T22:33:12.888Z,15.75
2019-02-04T22:33:35.631Z,14.40
2019-02-04T22:33:58.689Z,15.55
2019-02-04T22:34:21.848Z,14.80
2019-02-04T22:34:45.773Z,15.35
2019-02-04T22:35:09.169Z,15.63
2019-02-04T22:35:32.027Z,14.83
2019-02-04T22:35:55.469Z,14.53
2019-02-04T22:36:18.267Z,14.90
2019-02-04T22:36:41.587Z,15.15
2019-02-04T22:37:05.087Z,15.93
2019-02-04T22:37:28.009Z,17.17
2019-02-04T22:37:50.946Z,14.23
2019-02-04T22:38:14.447Z,14.63
2019-02-04T22:38:37.907Z,16.17
2019-02-04T22:39:00.868Z,16.23
2019-02-04T22:39:24.269Z,14.28
2019-02-04T22:39:47.188Z,15.15
2019-02-04T22:40:10.087Z,15.83
2019-02-04T22:40:33.266Z,15.63
2019-02-04T22:40:56.428Z,14.98
2019-02-04T22:41:19.927Z,14.55
2019-02-04T22:41:43.528Z,15.30
2019-02-04T22:42:06.528Z,15.80
2019-02-04T22:42:29.787Z,15.70
2019-02-04T22:42:52.909Z,13.80
2019-02-04T22:43:15.889Z,14.65
2019-02-04T22:43:38.848Z,15.08
2019-02-04T22:44:02.694Z,15.83
2019-02-04T22:44:25.727Z,15.83
2019-02-04T22:44:48.828Z,15.20
2019-02-04T22:45:12.350Z,14.95
2019-02-04T22:45:35.808Z,16.48
2019-02-04T22:45:58.828Z,15.55
2019-02-04T22:46:21.847Z,15.23
2019-02-04T22:46:44.869Z,15.08
2019-02-04T22:47:08.189Z,14.93
2019-02-04T22:47:31.068Z,15.85
2019-02-04T22:47:54.006Z,17.02
2019-02-04T22:48:19.248Z,16.20
2019-02-04T22:48:43.093Z,15.15
2019-02-04T22:49:06.347Z,14.78
2019-02-04T22:49:29.289Z,15.10
2019-02-04T22:49:52.269Z,15.72
2019-02-04T22:50:15.308Z,16.60
2019-02-04T22:50:40.909Z,15.75
2019-02-04T22:51:03.748Z,15.25
2019-02-04T22:51:26.547Z,16.02
2019-02-04T22:51:49.369Z,15.53
2019-02-04T22:52:12.589Z,14.95
2019-02-04T22:52:35.369Z,15.85
2019-02-04T22:52:58.268Z,16.23
2019-02-04T22:53:21.129Z,14.53
2019-02-04T22:53:45.809Z,16.02
2019-02-04T22:54:08.688Z,15.45
2019-02-04T22:54:31.567Z,15.90
2019-02-04T22:54:54.449Z,16.82
2019-02-04T22:55:17.510Z,15.70
2019-02-04T22:55:40.629Z,16.67
2019-02-04T22:56:05.248Z,16.50
2019-02-04T22:56:28.589Z,16.45
2019-02-04T22:56:51.550Z,14.15
2019-02-04T22:57:14.388Z,15.03
2019-02-04T22:57:37.266Z,15.48
2019-02-04T22:58:01.862Z,15.53
2019-02-04T22:58:24.768Z,16.17
2019-02-04T22:58:47.629Z,16.00
2019-02-04T22:59:10.653Z,15.05
2019-02-04T22:59:33.649Z,14.85
2019-02-04T22:59:57.129Z,15.45
2019-02-04T23:00:21.169Z,14.90
2019-02-04T23:00:48.387Z,14.85
2019-02-04T23:01:11.949Z,17.10
2019-02-04T23:01:34.927Z,15.95
2019-02-04T23:01:57.849Z,16.05
2019-02-04T23:02:21.469Z,15.50
2019-02-04T23:02:44.788Z,16.15
2019-02-04T23:03:07.586Z,15.60
2019-02-04T23:03:31.569Z,16.17
2019-02-04T23:03:54.469Z,17.50
2019-02-04T23:04:17.299Z,16.42
2019-02-04T23:04:40.449Z,16.40
2019-02-04T23:05:03.269Z,17.57